createdAt,value
2018-04-13T00:00:11.715Z,19.77
2018-04-13T00:01:11.497Z,19.81
2018-04-13T00:02:11.568Z,19.77
2018-04-13T00:03:11.477Z,19.78
2018-04-13T00:04:11.518Z,19.82
2018-04-13T00:05:11.589Z,19.75
2018-04-13T00:06:11.700Z,19.76
2018-04-13T00:07:11.556Z,19.78
2018-04-13T00:08:11.517Z,19.76
2018-04-13T00:09:11.781Z,19.75
2018-04-13T00:10:11.538Z,19.79
2018-04-13T00:11:11.640Z,19.77
2018-04-13T00:12:11.477Z,19.75
2018-04-13T00:13:11.614Z,19.79
2018-04-13T00:14:11.607Z,19.76
2018-04-13T00:15:11.638Z,19.76
2018-04-13T00:16:11.644Z,19.79
2018-04-13T00:17:11.461Z,19.75
2018-04-13T00:18:11.416Z,19.75
2018-04-13T00:19:11.582Z,19.78
2018-04-13T00:20:11.517Z,19.74
2018-04-13T00:21:11.386Z,19.72
2018-04-13T00:22:11.608Z,19.75
2018-04-13T00:23:11.742Z,19.73
2018-04-13T00:24:11.410Z,19.72
2018-04-13T00:25:11.615Z,19.76
2018-04-13T00:26:11.621Z,19.75
2018-04-13T00:27:11.496Z,19.75
2018-04-13T00:28:11.681Z,19.77
2018-04-13T00:29:13.573Z,19.73
2018-04-13T00:30:11.628Z,19.71
2018-04-13T00:31:11.459Z,19.75
2018-04-13T00:32:11.602Z,19.72
2018-04-13T00:33:11.356Z,19.73
2018-04-13T00:34:11.611Z,19.76
2018-04-13T00:35:11.715Z,19.73
2018-04-13T00:36:11.580Z,19.71
2018-04-13T00:37:11.631Z,19.75
2018-04-13T00:38:11.638Z,19.74
2018-04-13T00:39:11.412Z,19.73
2018-04-13T00:40:11.295Z,19.74
2018-04-13T00:41:11.542Z,19.72
2018-04-13T00:42:11.343Z,19.71
2018-04-13T00:43:11.375Z,19.75
2018-04-13T00:44:11.861Z,19.71
2018-04-13T00:45:11.596Z,19.73
2018-04-13T00:46:11.473Z,19.73
2018-04-13T00:47:11.480Z,19.7
2018-04-13T00:48:11.554Z,19.72
2018-04-13T00:49:11.483Z,19.73
2018-04-13T00:50:11.513Z,19.7
2018-04-13T00:51:11.597Z,19.71
2018-04-13T00:52:11.527Z,19.75
2018-04-13T00:53:11.614Z,19.73
2018-04-13T00:54:11.473Z,19.7
2018-04-13T00:55:11.540Z,19.73
2018-04-13T00:56:11.582Z,19.72
2018-04-13T00:57:11.394Z,19.73
2018-04-13T00:58:11.620Z,19.74
2018-04-13T00:59:11.600Z,19.7
2018-04-13T01:00:13.580Z,19.69
2018-04-13T01:01:11.481Z,19.74
2018-04-13T01:02:11.542Z,19.72
2018-04-13T01:03:11.441Z,19.71
2018-04-13T01:04:11.526Z,19.72
2018-04-13T01:05:11.543Z,19.69
2018-04-13T01:06:11.598Z,19.7
2018-04-13T01:07:11.474Z,19.75
2018-04-13T01:08:11.445Z,19.71
2018-04-13T01:09:11.576Z,19.69
2018-04-13T01:10:11.551Z,19.71
2018-04-13T01:11:11.570Z,19.69
2018-04-13T01:12:11.383Z,19.69
2018-04-13T01:13:11.438Z,19.72
2018-04-13T01:14:11.494Z,19.7
2018-04-13T01:15:11.470Z,19.7
2018-04-13T01:16:11.483Z,19.73
2018-04-13T01:17:11.369Z,19.69
2018-04-13T01:18:11.391Z,19.69
2018-04-13T01:19:11.539Z,19.72
2018-04-13T01:20:11.519Z,19.69
2018-04-13T01:21:11.589Z,19.68
2018-04-13T01:22:11.517Z,19.69
2018-04-13T01:23:11.469Z,19.69
2018-04-13T01:24:11.564Z,19.69
2018-04-13T01:25:11.577Z,19.71
2018-04-13T01:26:11.581Z,19.69
2018-04-13T01:27:11.645Z,19.69
2018-04-13T01:28:11.447Z,19.71
2018-04-13T01:29:11.462Z,19.69
2018-04-13T01:30:11.490Z,19.69
2018-04-13T01:31:11.531Z,19.7
2018-04-13T01:32:11.494Z,19.68
2018-04-13T01:33:11.611Z,19.67
2018-04-13T01:34:11.423Z,19.71
2018-04-13T01:35:11.629Z,19.68
2018-04-13T01:36:11.441Z,19.67
2018-04-13T01:37:11.576Z,19.7
2018-04-13T01:38:11.590Z,19.69
2018-04-13T01:39:11.404Z,19.69
2018-04-13T01:40:11.607Z,19.69
2018-04-13T01:41:11.478Z,19.68
2018-04-13T01:42:11.350Z,19.68
2018-04-13T01:43:11.602Z,19.68
2018-04-13T01:44:11.466Z,19.68
2018-04-13T01:45:11.532Z,19.64
2018-04-13T01:46:11.573Z,19.66
2018-04-13T01:47:11.494Z,19.66
2018-04-13T01:48:11.557Z,19.65
2018-04-13T01:49:11.470Z,19.68
2018-04-13T01:50:11.502Z,19.66
2018-04-13T01:51:11.557Z,19.63
2018-04-13T01:52:11.649Z,19.67
2018-04-13T01:53:11.549Z,19.65
2018-04-13T01:54:11.487Z,19.64
2018-04-13T01:55:11.578Z,19.69
2018-04-13T01:56:11.440Z,19.63
2018-04-13T01:57:11.453Z,19.65
2018-04-13T01:58:11.432Z,19.68
2018-04-13T01:59:11.522Z,19.67
2018-04-13T02:00:11.660Z,19.65
2018-04-13T02:01:11.401Z,19.68
2018-04-13T02:02:11.389Z,19.65
2018-04-13T02:03:11.570Z,19.63
2018-04-13T02:04:11.610Z,19.65
2018-04-13T02:05:11.620Z,19.64
2018-04-13T02:06:11.561Z,19.64
2018-04-13T02:07:11.377Z,19.66
2018-04-13T02:08:11.385Z,19.65
2018-04-13T02:09:11.412Z,19.65
2018-04-13T02:10:11.514Z,19.68
2018-04-13T02:11:11.491Z,19.65
2018-04-13T02:12:11.513Z,19.63
2018-04-13T02:13:11.613Z,19.67
2018-04-13T02:14:11.506Z,19.64
2018-04-13T02:15:11.592Z,19.63
2018-04-13T02:16:11.544Z,19.65
2018-04-13T02:17:11.491Z,19.65
2018-04-13T02:18:11.431Z,19.63
2018-04-13T02:19:11.416Z,19.66
2018-04-13T02:20:11.562Z,19.63
2018-04-13T02:21:11.448Z,19.63
2018-04-13T02:22:11.397Z,19.65
2018-04-13T02:23:11.512Z,19.63
2018-04-13T02:24:11.344Z,19.62
2018-04-13T02:25:11.488Z,19.65
2018-04-13T02:26:11.478Z,19.63
2018-04-13T02:27:11.579Z,19.63
2018-04-13T02:28:11.390Z,19.66
2018-04-13T02:29:11.508Z,19.63
2018-04-13T02:30:11.362Z,19.62
2018-04-13T02:31:11.478Z,19.63
2018-04-13T02:32:11.390Z,19.63
2018-04-13T02:33:11.657Z,19.6
2018-04-13T02:34:11.391Z,19.63
2018-04-13T02:35:11.489Z,19.62
2018-04-13T02:36:11.549Z,19.6
2018-04-13T02:37:11.477Z,19.63
2018-04-13T02:38:11.690Z,19.62
2018-04-13T02:39:11.488Z,19.61
2018-04-13T02:40:11.500Z,19.62
2018-04-13T02:41:11.422Z,19.61
2018-04-13T02:42:11.503Z,19.59
2018-04-13T02:43:11.515Z,19.63
2018-04-13T02:44:11.502Z,19.6
2018-04-13T02:45:11.579Z,19.58
2018-04-13T02:46:11.522Z,19.62
2018-04-13T02:47:11.320Z,19.6
2018-04-13T02:48:11.537Z,19.59
2018-04-13T02:49:11.510Z,19.63
2018-04-13T02:50:11.469Z,19.6
2018-04-13T02:51:11.508Z,19.57
2018-04-13T02:52:11.368Z,19.61
2018-04-13T02:53:11.589Z,19.59
2018-04-13T02:54:11.434Z,19.58
2018-04-13T02:55:11.589Z,19.62
2018-04-13T02:56:11.504Z,19.59
2018-04-13T02:57:11.553Z,19.57
2018-04-13T02:58:11.430Z,19.63
2018-04-13T02:59:11.569Z,19.58
2018-04-13T03:00:11.334Z,19.58
2018-04-13T03:01:11.580Z,19.61
2018-04-13T03:02:11.600Z,19.58
2018-04-13T03:03:11.363Z,19.57
2018-04-13T03:04:11.589Z,19.61
2018-04-13T03:05:11.423Z,19.59
2018-04-13T03:06:11.388Z,19.57
2018-04-13T03:07:11.592Z,19.61
2018-04-13T03:08:11.414Z,19.59
2018-04-13T03:09:11.653Z,19.59
2018-04-13T03:10:11.496Z,19.63
2018-04-13T03:11:11.586Z,19.57
2018-04-13T03:12:11.581Z,19.57
2018-04-13T03:13:11.546Z,19.61
2018-04-13T03:14:11.448Z,19.57
2018-04-13T03:15:11.597Z,19.57
2018-04-13T03:16:11.449Z,19.6
2018-04-13T03:17:11.479Z,19.57
2018-04-13T03:18:11.471Z,19.56
2018-04-13T03:19:11.584Z,19.58
2018-04-13T03:20:11.417Z,19.57
2018-04-13T03:21:11.410Z,19.56
2018-04-13T03:22:11.578Z,19.61
2018-04-13T03:23:11.562Z,19.57
2018-04-13T03:24:11.400Z,19.58
2018-04-13T03:25:11.510Z,19.61
2018-04-13T03:26:11.488Z,19.58
2018-04-13T03:27:11.411Z,19.57
2018-04-13T03:28:11.549Z,19.59
2018-04-13T03:29:11.561Z,19.58
2018-04-13T03:30:11.422Z,19.56
2018-04-13T03:31:11.322Z,19.58
2018-04-13T03:32:11.543Z,19.56
2018-04-13T03:33:11.596Z,19.55
2018-04-13T03:34:11.376Z,19.59
2018-04-13T03:35:11.468Z,19.56
2018-04-13T03:36:11.481Z,19.56
2018-04-13T03:37:11.477Z,19.6
2018-04-13T03:38:11.605Z,19.55
2018-04-13T03:39:11.548Z,19.55
2018-04-13T03:40:11.416Z,19.57
2018-04-13T03:41:11.572Z,19.55
2018-04-13T03:42:11.376Z,19.54
2018-04-13T03:43:11.529Z,19.6
2018-04-13T03:44:11.541Z,19.57
2018-04-13T03:45:11.402Z,19.56
2018-04-13T03:46:11.586Z,19.6
2018-04-13T03:47:11.996Z,19.57
2018-04-13T03:48:11.296Z,19.55
2018-04-13T03:49:11.467Z,19.57
2018-04-13T03:50:11.398Z,19.54
2018-04-13T03:51:11.469Z,19.53
2018-04-13T03:52:11.550Z,19.58
2018-04-13T03:53:11.553Z,19.55
2018-04-13T03:54:11.439Z,19.56
2018-04-13T03:55:11.659Z,19.6
2018-04-13T03:56:11.429Z,19.58
2018-04-13T03:57:11.544Z,19.57
2018-04-13T03:58:11.414Z,19.62
2018-04-13T03:59:11.486Z,19.59
2018-04-13T04:00:11.482Z,19.59
2018-04-13T04:01:11.366Z,19.67
2018-04-13T04:02:13.868Z,19.65
2018-04-13T04:03:11.541Z,19.64
2018-04-13T04:04:11.525Z,19.68
2018-04-13T04:05:11.445Z,19.71
2018-04-13T04:06:11.405Z,19.69
2018-04-13T04:07:11.420Z,19.73
2018-04-13T04:08:11.586Z,19.75
2018-04-13T04:09:11.321Z,19.75
2018-04-13T04:10:11.280Z,19.78
2018-04-13T04:11:11.426Z,19.82
2018-04-13T04:12:11.513Z,19.83
2018-04-13T04:13:11.290Z,19.89
2018-04-13T04:14:11.541Z,19.9
2018-04-13T04:15:11.360Z,19.91
2018-04-13T04:16:11.343Z,19.94
2018-04-13T04:17:11.531Z,19.96
2018-04-13T04:18:11.327Z,19.96
2018-04-13T04:19:11.484Z,20
2018-04-13T04:20:11.435Z,20.02
2018-04-13T04:21:11.572Z,20.03
2018-04-13T04:22:11.496Z,20.04
2018-04-13T04:23:11.411Z,20.06
2018-04-13T04:24:11.868Z,20.06
2018-04-13T04:25:11.394Z,20.08
2018-04-13T04:26:11.448Z,20.12
2018-04-13T04:27:11.445Z,20.12
2018-04-13T04:28:11.606Z,20.15
2018-04-13T04:29:11.530Z,20.18
2018-04-13T04:30:11.296Z,20.16
2018-04-13T04:31:11.541Z,20.18
2018-04-13T04:32:11.344Z,20.21
2018-04-13T04:33:11.335Z,20.19
2018-04-13T04:34:11.439Z,20.24
2018-04-13T04:35:11.455Z,20.26
2018-04-13T04:36:11.354Z,20.24
2018-04-13T04:37:11.652Z,20.25
2018-04-13T04:38:11.683Z,20.3
2018-04-13T04:39:11.353Z,20.3
2018-04-13T04:40:11.473Z,20.3
2018-04-13T04:41:11.459Z,20.34
2018-04-13T04:42:11.346Z,20.31
2018-04-13T04:43:11.490Z,20.33
2018-04-13T04:44:11.319Z,20.37
2018-04-13T04:45:11.388Z,20.36
2018-04-13T04:46:11.367Z,20.39
2018-04-13T04:47:11.474Z,20.41
2018-04-13T04:48:11.393Z,20.41
2018-04-13T04:49:11.331Z,20.43
2018-04-13T04:50:11.509Z,20.46
2018-04-13T04:51:11.533Z,20.42
2018-04-13T04:52:11.288Z,20.46
2018-04-13T04:53:11.366Z,20.47
2018-04-13T04:54:11.438Z,20.46
2018-04-13T04:55:11.582Z,20.48
2018-04-13T04:56:11.551Z,20.5
2018-04-13T04:57:11.327Z,20.49
2018-04-13T04:58:11.324Z,20.49
2018-04-13T04:59:11.332Z,20.52
2018-04-13T05:00:11.442Z,20.52
2018-04-13T05:01:11.378Z,20.53
2018-04-13T05:02:11.392Z,20.57
2018-04-13T05:03:11.536Z,20.55
2018-04-13T05:04:11.368Z,20.55
2018-04-13T05:05:11.411Z,20.59
2018-04-13T05:06:11.570Z,20.56
2018-04-13T05:07:11.491Z,20.58
2018-04-13T05:08:11.416Z,20.6
2018-04-13T05:09:11.402Z,20.58
2018-04-13T05:10:11.454Z,20.6
2018-04-13T05:11:11.379Z,20.63
2018-04-13T05:12:11.290Z,20.53
2018-04-13T05:13:11.505Z,20.51
2018-04-13T05:14:11.449Z,20.48
2018-04-13T05:15:11.510Z,20.47
2018-04-13T05:16:11.433Z,20.51
2018-04-13T05:17:11.459Z,20.5
2018-04-13T05:18:11.401Z,20.51
2018-04-13T05:19:11.331Z,20.56
2018-04-13T05:20:11.427Z,20.6
2018-04-13T05:21:11.489Z,20.6
2018-04-13T05:22:11.370Z,20.59
2018-04-13T05:23:11.405Z,20.54
2018-04-13T05:24:11.305Z,20.53
2018-04-13T05:25:11.325Z,20.54
2018-04-13T05:26:11.281Z,20.52
2018-04-13T05:27:11.426Z,20.53
2018-04-13T05:28:11.464Z,20.53
2018-04-13T05:29:11.501Z,20.49
2018-04-13T05:30:11.516Z,20.55
2018-04-13T05:31:11.559Z,20.59
2018-04-13T05:32:11.350Z,20.65
2018-04-13T05:33:11.361Z,20.65
2018-04-13T05:34:11.276Z,20.68
2018-04-13T05:35:12.098Z,20.71
2018-04-13T05:36:11.408Z,20.71
2018-04-13T05:37:11.410Z,20.75
2018-04-13T05:38:11.604Z,20.76
2018-04-13T05:39:11.561Z,20.77
2018-04-13T05:40:11.290Z,20.8
2018-04-13T05:41:11.354Z,20.82
2018-04-13T05:42:11.290Z,20.8
2018-04-13T05:43:11.363Z,20.83
2018-04-13T05:44:11.513Z,20.85
2018-04-13T05:45:11.381Z,20.82
2018-04-13T05:46:11.423Z,20.83
2018-04-13T05:47:11.302Z,20.86
2018-04-13T05:48:11.291Z,20.87
2018-04-13T05:49:11.533Z,20.78
2018-04-13T05:50:11.380Z,20.77
2018-04-13T05:51:11.387Z,20.8
2018-04-13T05:52:11.428Z,20.87
2018-04-13T05:53:11.331Z,20.89
2018-04-13T05:54:11.323Z,20.92
2018-04-13T05:55:11.446Z,20.95
2018-04-13T05:56:11.339Z,21
2018-04-13T05:57:11.489Z,20.97
2018-04-13T05:58:11.542Z,20.99
2018-04-13T05:59:11.545Z,21.03
2018-04-13T06:00:11.553Z,21.01
2018-04-13T06:01:11.329Z,21.03
2018-04-13T06:02:11.529Z,21.07
2018-04-13T06:03:11.370Z,21.05
2018-04-13T06:04:11.559Z,21.07
2018-04-13T06:05:11.258Z,21.11
2018-04-13T06:06:11.339Z,21.09
2018-04-13T06:07:11.282Z,21.1
2018-04-13T06:08:12.582Z,21.11
2018-04-13T06:09:11.506Z,21.13
2018-04-13T06:10:11.473Z,21.17
2018-04-13T06:11:11.393Z,21.16
2018-04-13T06:12:11.310Z,21.17
2018-04-13T06:13:11.514Z,21.18
2018-04-13T06:14:11.528Z,21.18
2018-04-13T06:15:11.328Z,21.19
2018-04-13T06:16:11.484Z,21.16
2018-04-13T06:17:11.486Z,21.17
2018-04-13T06:18:11.441Z,21.16
2018-04-13T06:19:11.256Z,21.15
2018-04-13T06:20:11.459Z,21.16
2018-04-13T06:21:11.488Z,21.16
2018-04-13T06:22:11.831Z,21.12
2018-04-13T06:23:11.367Z,21.07
2018-04-13T06:24:11.601Z,21.07
2018-04-13T06:25:11.349Z,21.11
2018-04-13T06:26:11.335Z,21.1
2018-04-13T06:27:11.342Z,21.07
2018-04-13T06:28:11.627Z,21.08
2018-04-13T06:29:11.299Z,21.09
2018-04-13T06:30:11.767Z,21.07
2018-04-13T06:31:11.483Z,21.09
2018-04-13T06:32:11.354Z,21.09
2018-04-13T06:33:11.390Z,21.03
2018-04-13T06:34:11.496Z,21.01
2018-04-13T06:35:11.521Z,21.01
2018-04-13T06:36:11.287Z,21.06
2018-04-13T06:37:11.744Z,21.1
2018-04-13T06:38:11.562Z,21.11
2018-04-13T06:39:11.561Z,21.07
2018-04-13T06:40:11.605Z,21.08
2018-04-13T06:41:11.313Z,21.14
2018-04-13T06:42:11.434Z,21.19
2018-04-13T06:43:13.496Z,21.09
2018-04-13T06:44:11.422Z,21.09
2018-04-13T06:45:11.417Z,21.07
2018-04-13T06:46:11.453Z,21.13
2018-04-13T06:47:11.528Z,21.13
2018-04-13T06:48:11.396Z,21.13
2018-04-13T06:49:11.289Z,21.13
2018-04-13T06:50:11.445Z,21.13
2018-04-13T06:51:11.429Z,21.13
2018-04-13T06:52:11.464Z,21.13
2018-04-13T06:53:11.286Z,21.16
2018-04-13T06:54:11.375Z,21.14
2018-04-13T06:55:11.474Z,21.15
2018-04-13T06:56:11.442Z,21.13
2018-04-13T06:57:11.726Z,21.12
2018-04-13T06:58:11.460Z,21.14
2018-04-13T06:59:11.290Z,21.12
2018-04-13T07:00:11.335Z,21.08
2018-04-13T07:01:11.568Z,21.09
2018-04-13T07:02:11.237Z,21.08
2018-04-13T07:03:11.343Z,21.06
2018-04-13T07:04:11.350Z,21.07
2018-04-13T07:05:11.348Z,21.01
2018-04-13T07:06:11.412Z,20.99
2018-04-13T07:07:11.371Z,21.01
2018-04-13T07:08:11.284Z,21
2018-04-13T07:09:11.482Z,20.98
2018-04-13T07:10:11.395Z,21
2018-04-13T07:11:11.266Z,20.98
2018-04-13T07:12:11.306Z,20.97
2018-04-13T07:13:11.393Z,20.97
2018-04-13T07:14:11.404Z,20.95
2018-04-13T07:15:11.311Z,20.95
2018-04-13T07:16:11.349Z,20.99
2018-04-13T07:17:11.466Z,20.93
2018-04-13T07:18:11.493Z,20.92
2018-04-13T07:19:11.406Z,20.92
2018-04-13T07:20:11.313Z,20.9
2018-04-13T07:21:11.505Z,20.89
2018-04-13T07:22:11.449Z,20.94
2018-04-13T07:23:11.367Z,20.89
2018-04-13T07:24:11.232Z,20.84
2018-04-13T07:25:11.245Z,20.89
2018-04-13T07:26:11.277Z,20.85
2018-04-13T07:27:11.453Z,20.85
2018-04-13T07:28:11.469Z,20.92
2018-04-13T07:29:11.476Z,20.89
2018-04-13T07:30:11.631Z,20.87
2018-04-13T07:31:11.268Z,20.89
2018-04-13T07:32:11.653Z,20.89
2018-04-13T07:33:11.238Z,20.91
2018-04-13T07:34:11.457Z,20.91
2018-04-13T07:35:11.408Z,20.89
2018-04-13T07:36:11.552Z,20.9
2018-04-13T07:37:11.382Z,20.89
2018-04-13T07:38:11.352Z,20.89
2018-04-13T07:39:11.803Z,20.86
2018-04-13T07:40:11.450Z,20.89
2018-04-13T07:41:11.451Z,20.88
2018-04-13T07:42:11.334Z,20.86
2018-04-13T07:43:11.332Z,20.89
2018-04-13T07:44:11.522Z,20.88
2018-04-13T07:45:11.401Z,20.83
2018-04-13T07:46:11.501Z,20.89
2018-04-13T07:47:30.580Z,21.03
2018-04-13T07:48:30.634Z,21.41
2018-04-13T07:49:30.533Z,21.58
2018-04-13T07:50:30.936Z,21.65
2018-04-13T07:51:30.625Z,21.71
2018-04-13T07:52:30.631Z,21.66
2018-04-13T07:53:32.281Z,21.69
2018-04-13T07:54:52.683Z,21.62
2018-04-13T07:55:52.537Z,21.47
2018-04-13T07:56:52.640Z,21.46
2018-04-13T07:57:52.632Z,21.36
2018-04-13T07:58:52.827Z,21.54
2018-04-13T07:59:52.507Z,21.6
2018-04-13T08:00:52.528Z,21.64
2018-04-13T08:01:53.679Z,21.64
2018-04-13T08:02:52.745Z,21.69
2018-04-13T08:03:52.577Z,21.68
2018-04-13T08:04:52.538Z,21.7
2018-04-13T08:05:16.814Z,21.68
2018-04-13T08:06:16.619Z,21.73
2018-04-13T08:07:16.933Z,21.73
2018-04-13T08:08:16.796Z,21.73
2018-04-13T08:09:16.715Z,21.73
2018-04-13T08:10:16.837Z,21.71
2018-04-13T08:11:16.806Z,21.69
2018-04-13T08:12:16.994Z,21.71
2018-04-13T08:13:22.297Z,21.74
2018-04-13T08:14:22.191Z,21.74
2018-04-13T08:15:22.221Z,21.72
2018-04-13T08:16:22.171Z,21.71
2018-04-13T08:17:22.283Z,21.71
2018-04-13T08:18:22.231Z,21.68
2018-04-13T08:19:22.553Z,21.69
2018-04-13T08:20:22.207Z,21.67
2018-04-13T08:21:22.104Z,21.54
2018-04-13T08:22:22.266Z,21.43
2018-04-13T08:23:22.336Z,21.44
2018-04-13T08:24:22.131Z,21.46
2018-04-13T08:25:22.254Z,21.59
2018-04-13T08:26:22.053Z,21.62
2018-04-13T08:27:22.247Z,21.66
2018-04-13T08:28:22.041Z,21.65
2018-04-13T08:29:22.228Z,21.69
2018-04-13T08:30:22.186Z,21.64
2018-04-13T08:31:22.106Z,21.65
2018-04-13T08:31:55.893Z,21.7
2018-04-13T08:32:55.879Z,21.65
2018-04-13T08:33:55.997Z,21.68
2018-04-13T08:34:55.979Z,21.66
2018-04-13T08:35:55.874Z,21.69
2018-04-13T08:36:55.971Z,21.65
2018-04-13T08:37:55.820Z,21.65
2018-04-13T08:38:55.925Z,21.65
2018-04-13T08:39:55.759Z,21.64
2018-04-13T08:40:55.912Z,21.69
2018-04-13T08:41:56.087Z,21.72
2018-04-13T08:42:56.043Z,21.7
2018-04-13T08:43:56.021Z,21.71
2018-04-13T08:44:56.007Z,21.69
2018-04-13T08:45:55.958Z,21.66
2018-04-13T08:46:55.978Z,21.46
2018-04-13T08:47:55.748Z,21.46
2018-04-13T08:48:57.223Z,21.5
2018-04-13T08:49:55.808Z,21.44
2018-04-13T08:50:55.883Z,21.51
2018-04-13T08:51:55.914Z,21.54
2018-04-13T08:52:55.990Z,21.55
2018-04-13T08:53:56.009Z,21.58
2018-04-13T08:54:56.458Z,21.55
2018-04-13T08:55:55.803Z,21.54
2018-04-13T08:56:55.871Z,21.53
2018-04-13T08:57:55.946Z,21.5
2018-04-13T08:58:43.395Z,21.56
2018-04-13T08:59:43.204Z,21.58
2018-04-13T09:00:43.444Z,21.6
2018-04-13T09:01:43.398Z,21.62
2018-04-13T09:02:43.390Z,21.64
2018-04-13T09:03:37.388Z,21.63
2018-04-13T09:04:34.519Z,21.53
2018-04-13T09:05:34.569Z,21.59
2018-04-13T09:06:34.960Z,21.6
2018-04-13T09:07:34.536Z,21.58
2018-04-13T09:08:24.909Z,21.53
2018-04-13T09:09:24.937Z,21.51
2018-04-13T09:10:24.754Z,21.48
2018-04-13T09:11:24.795Z,21.46
2018-04-13T09:12:24.852Z,21.52
2018-04-13T09:13:24.816Z,21.45
2018-04-13T09:14:25.014Z,21.41
2018-04-13T09:15:24.944Z,21.47
2018-04-13T09:16:24.899Z,21.5
2018-04-13T09:17:24.950Z,21.53
2018-04-13T09:18:24.853Z,21.54
2018-04-13T09:19:24.824Z,21.54
2018-04-13T09:20:24.956Z,21.6
2018-04-13T09:21:24.885Z,21.59
2018-04-13T09:22:24.861Z,21.61
2018-04-13T09:23:24.837Z,21.6
2018-04-13T09:24:24.961Z,21.61
2018-04-13T09:25:24.747Z,21.54
2018-04-13T09:26:24.827Z,21.61
2018-04-13T09:27:25.009Z,21.61
2018-04-13T09:28:24.750Z,21.6
2018-04-13T09:29:24.835Z,21.63
2018-04-13T09:30:02.314Z,21.62
2018-04-13T09:31:02.285Z,21.64
2018-04-13T09:31:33.716Z,21.65
2018-04-13T09:32:33.610Z,21.59
2018-04-13T09:33:00.376Z,21.58
2018-04-13T09:34:00.179Z,21.61
2018-04-13T09:35:00.254Z,21.61
2018-04-13T09:36:00.376Z,21.61
2018-04-13T09:37:00.421Z,21.61
2018-04-13T09:38:00.406Z,21.6
2018-04-13T09:39:00.478Z,21.41
2018-04-13T09:40:00.395Z,21.47
2018-04-13T09:41:00.456Z,21.44
2018-04-13T09:42:00.216Z,21.48
2018-04-13T09:43:00.261Z,21.48
2018-04-13T09:44:00.281Z,21.47
2018-04-13T09:45:00.427Z,21.45
2018-04-13T09:46:00.378Z,21.42
2018-04-13T09:47:00.382Z,21.42
2018-04-13T09:48:00.370Z,21.41
2018-04-13T09:49:00.386Z,21.4
2018-04-13T09:50:00.388Z,21.38
2018-04-13T09:51:00.457Z,21.34
2018-04-13T09:52:00.313Z,21.36
2018-04-13T09:53:00.551Z,21.37
2018-04-13T09:54:00.327Z,21.36
2018-04-13T09:55:00.175Z,21.37
2018-04-13T09:56:00.261Z,21.36
2018-04-13T09:57:00.372Z,21.35
2018-04-13T09:58:00.240Z,21.41
2018-04-13T09:59:00.411Z,21.37
2018-04-13T10:00:00.428Z,21.3
2018-04-13T10:01:00.319Z,21.25
2018-04-13T10:02:00.382Z,21.32
2018-04-13T10:03:00.410Z,21.3
2018-04-13T10:04:00.321Z,21.33
2018-04-13T10:05:00.215Z,21.3
2018-04-13T10:06:00.181Z,21.33
2018-04-13T10:07:00.362Z,21.36
2018-04-13T10:08:00.633Z,21.2
2018-04-13T10:09:00.298Z,21.21
2018-04-13T10:10:00.156Z,21.21
2018-04-13T10:11:00.247Z,21.24
2018-04-13T10:12:00.190Z,21.2
2018-04-13T10:13:00.388Z,21.16
2018-04-13T10:14:00.451Z,21.18
2018-04-13T10:15:00.261Z,21.23
2018-04-13T10:16:00.435Z,21.15
2018-04-13T10:17:00.358Z,21.16
2018-04-13T10:18:00.451Z,21.22
2018-04-13T10:19:00.318Z,21.18
2018-04-13T10:20:00.231Z,21.18
2018-04-13T10:21:00.172Z,21.13
2018-04-13T10:22:00.326Z,21.14
2018-04-13T10:23:00.262Z,21.11
2018-04-13T10:24:00.151Z,21.14
2018-04-13T10:25:00.180Z,21.1
2018-04-13T10:26:00.185Z,21.02
2018-04-13T10:27:00.437Z,20.95
2018-04-13T10:28:00.240Z,20.99
2018-04-13T10:29:00.236Z,20.95
2018-04-13T10:30:00.369Z,20.94
2018-04-13T10:31:00.266Z,20.97
2018-04-13T10:32:00.237Z,20.95
2018-04-13T10:33:00.473Z,20.95
2018-04-13T10:34:00.241Z,20.97
2018-04-13T10:35:00.310Z,20.97
2018-04-13T10:36:00.247Z,20.97
2018-04-13T10:37:00.172Z,20.98
2018-04-13T10:38:00.170Z,20.99
2018-04-13T10:39:00.282Z,21
2018-04-13T10:40:00.215Z,21.01
2018-04-13T10:41:00.217Z,21.02
2018-04-13T10:42:00.278Z,21.01
2018-04-13T10:43:00.398Z,21.03
2018-04-13T10:44:00.283Z,21.04
2018-04-13T10:45:00.341Z,21.05
2018-04-13T10:46:00.219Z,21.07
2018-04-13T10:47:00.379Z,21.06
2018-04-13T10:48:00.803Z,21.17
2018-04-13T10:49:00.286Z,21.13
2018-04-13T10:50:00.259Z,21.18
2018-04-13T10:51:00.342Z,21.19
2018-04-13T10:52:00.164Z,21.22
2018-04-13T10:53:00.184Z,21.21
2018-04-13T10:54:00.250Z,21.21
2018-04-13T10:55:00.178Z,21.24
2018-04-13T10:56:00.351Z,21.24
2018-04-13T10:57:00.270Z,21.26
2018-04-13T10:58:00.333Z,21.28
2018-04-13T10:59:00.251Z,21.28
2018-04-13T11:00:00.291Z,21.29
2018-04-13T11:01:00.131Z,21.3
2018-04-13T11:02:00.367Z,21.31
2018-04-13T11:03:00.378Z,21.32
2018-04-13T11:04:00.193Z,21.25
2018-04-13T11:05:00.261Z,21.42
2018-04-13T11:06:00.177Z,21.49
2018-04-13T11:07:00.251Z,21.48
2018-04-13T11:08:00.206Z,21.49
2018-04-13T11:09:00.690Z,21.54
2018-04-13T11:10:00.231Z,21.54
2018-04-13T11:11:00.409Z,21.58
2018-04-13T11:12:00.222Z,21.65
2018-04-13T11:13:00.404Z,21.66
2018-04-13T11:14:00.235Z,21.71
2018-04-13T11:15:00.385Z,21.71
2018-04-13T11:16:00.494Z,21.78
2018-04-13T11:17:00.296Z,21.84
2018-04-13T11:18:00.380Z,21.77
2018-04-13T11:19:00.313Z,21.64
2018-04-13T11:20:00.163Z,21.71
2018-04-13T11:21:00.314Z,21.71
2018-04-13T11:22:00.296Z,21.72
2018-04-13T11:23:00.276Z,21.72
2018-04-13T11:24:00.189Z,21.74
2018-04-13T11:25:00.226Z,21.73
2018-04-13T11:26:00.171Z,21.71
2018-04-13T11:27:00.502Z,21.71
2018-04-13T11:28:00.343Z,21.71
2018-04-13T11:29:00.162Z,21.7
2018-04-13T11:30:00.208Z,21.69
2018-04-13T11:31:00.350Z,21.7
2018-04-13T11:32:00.205Z,21.7
2018-04-13T11:33:00.220Z,21.7
2018-04-13T11:34:00.186Z,21.71
2018-04-13T11:35:00.145Z,21.7
2018-04-13T11:36:00.140Z,21.7
2018-04-13T11:37:00.470Z,21.71
2018-04-13T11:38:00.323Z,21.71
2018-04-13T11:39:00.200Z,21.71
2018-04-13T11:40:00.243Z,21.72
2018-04-13T11:41:00.123Z,21.72
2018-04-13T11:42:00.365Z,21.71
2018-04-13T11:43:00.164Z,21.73
2018-04-13T11:44:00.187Z,21.72
2018-04-13T11:45:00.559Z,21.72
2018-04-13T11:46:00.263Z,21.74
2018-04-13T11:47:00.220Z,21.73
2018-04-13T11:48:00.126Z,21.72
2018-04-13T11:49:00.330Z,21.75
2018-04-13T11:50:00.469Z,21.74
2018-04-13T11:51:00.280Z,21.74
2018-04-13T11:52:00.353Z,21.75
2018-04-13T11:53:00.336Z,21.75
2018-04-13T11:54:00.265Z,21.74
2018-04-13T11:55:00.302Z,21.75
2018-04-13T11:56:00.219Z,21.73
2018-04-13T11:57:00.281Z,21.73
2018-04-13T11:58:00.189Z,21.74
2018-04-13T11:59:00.191Z,21.73
2018-04-13T12:00:00.306Z,21.73
2018-04-13T12:01:00.412Z,21.73
2018-04-13T12:02:00.125Z,21.73
2018-04-13T12:03:00.221Z,21.72
2018-04-13T12:04:00.348Z,21.74
2018-04-13T12:05:00.226Z,21.74
2018-04-13T12:06:00.373Z,21.73
2018-04-13T12:07:00.329Z,21.74
2018-04-13T12:08:00.252Z,21.75
2018-04-13T12:09:00.289Z,21.74
2018-04-13T12:10:00.298Z,21.74
2018-04-13T12:11:00.238Z,21.76
2018-04-13T12:12:00.176Z,21.75
2018-04-13T12:13:00.272Z,21.77
2018-04-13T12:14:00.199Z,21.75
2018-04-13T12:15:00.184Z,21.75
2018-04-13T12:16:00.440Z,21.76
2018-04-13T12:17:00.202Z,21.76
2018-04-13T12:18:00.216Z,21.74
2018-04-13T12:19:00.311Z,21.76
2018-04-13T12:20:00.338Z,21.75
2018-04-13T12:21:00.145Z,21.75
2018-04-13T12:22:00.604Z,21.76
2018-04-13T12:23:00.260Z,21.75
2018-04-13T12:24:00.220Z,21.74
2018-04-13T12:25:00.202Z,21.75
2018-04-13T12:26:00.259Z,21.74
2018-04-13T12:27:00.411Z,21.74
2018-04-13T12:28:00.198Z,21.74
2018-04-13T12:29:00.229Z,21.75
2018-04-13T12:30:00.268Z,21.75
2018-04-13T12:31:00.308Z,21.77
2018-04-13T12:32:00.167Z,21.77
2018-04-13T12:33:00.330Z,21.77
2018-04-13T12:34:00.294Z,21.77
2018-04-13T12:35:01.105Z,21.77
2018-04-13T12:36:00.165Z,21.77
2018-04-13T12:37:00.425Z,21.78
2018-04-13T12:38:00.220Z,21.78
2018-04-13T12:39:00.367Z,21.78
2018-04-13T12:40:00.228Z,21.78
2018-04-13T12:41:00.634Z,21.78
2018-04-13T12:42:00.312Z,21.79
2018-04-13T12:43:00.207Z,21.8
2018-04-13T12:44:00.313Z,21.79
2018-04-13T12:45:00.350Z,21.78
2018-04-13T12:46:00.176Z,21.79
2018-04-13T12:47:00.808Z,21.83
2018-04-13T12:48:00.249Z,21.92
2018-04-13T12:49:00.516Z,22.03
2018-04-13T12:50:00.627Z,21.96
2018-04-13T12:51:00.312Z,21.95
2018-04-13T12:52:00.612Z,22.05
2018-04-13T12:53:00.742Z,22.05